sensor_id;sensor_type;location;lat;lon;timestamp;temperature;humidity
25192;DHT22;13143;50.924;5.320;2023-11-21T00:00:14;10.60;99.90
25192;DHT22;13143;50.924;5.320;2023-11-21T00:02:41;10.60;99.90
25192;DHT22;13143;50.924;5.320;2023-11-21T00:05:10;10.60;99.90
25192;DHT22;13143;50.924;5.320;2023-11-21T00:07:37;10.60;99.90
25192;DHT22;13143;50.924;5.320;2023-11-21T00:10:03;10.60;99.90
25192;DHT22;13143;50.924;5.320;2023-11-21T00:12:31;10.60;99.90
25192;DHT22;13143;50.924;5.320;2023-11-21T00:14:57;10.60;99.90
25192;DHT22;13143;50.924;5.320;2023-11-21T00:17:23;10.60;99.90
25192;DHT22;13143;50.924;5.320;2023-11-21T00:19:50;10.60;99.90
25192;DHT22;13143;50.924;5.320;2023-11-21T00:22:17;10.60;99.90
25192;DHT22;13143;50.924;5.320;2023-11-21T00:24:43;10.60;99.90
25192;DHT22;13143;50.924;5.320;2023-11-21T00:27:09;10.70;99.90
25192;DHT22;13143;50.924;5.320;2023-11-21T00:29:35;10.60;99.90
25192;DHT22;13143;50.924;5.320;2023-11-21T00:32:00;10.60;99.90
25192;DHT22;13143;50.924;5.320;2023-11-21T00:34:26;10.60;99.90
25192;DHT22;13143;50.924;5.320;2023-11-21T00:36:52;10.60;99.90
25192;DHT22;13143;50.924;5.320;2023-11-21T00:39:18;10.70;99.90
25192;DHT22;13143;50.924;5.320;2023-11-21T00:41:44;10.70;99.90
25192;DHT22;13143;50.924;5.320;2023-11-21T00:44:11;10.70;99.90
25192;DHT22;13143;50.924;5.320;2023-11-21T00:46:36;10.70;99.90
25192;DHT22;13143;50.924;5.320;2023-11-21T00:49:02;10.70;99.90
25192;DHT22;13143;50.924;5.320;2023-11-21T00:51:31;10.70;99.90
25192;DHT22;13143;50.924;5.320;2023-11-21T00:53:58;10.60;99.90
25192;DHT22;13143;50.924;5.320;2023-11-21T00:56:23;10.60;99.90
25192;DHT22;13143;50.924;5.320;2023-11-21T00:58:49;10.70;99.90
25192;DHT22;13143;50.924;5.320;2023-11-21T01:01:18;10.60;99.90
25192;DHT22;13143;50.924;5.320;2023-11-21T01:03:46;10.70;99.90
25192;DHT22;13143;50.924;5.320;2023-11-21T01:06:12;10.60;99.90
25192;DHT22;13143;50.924;5.320;2023-11-21T01:08:38;10.70;99.90
25192;DHT22;13143;50.924;5.320;2023-11-21T01:11:04;10.60;99.90
25192;DHT22;13143;50.924;5.320;2023-11-21T01:13:30;10.60;99.90
25192;DHT22;13143;50.924;5.320;2023-11-21T01:15:56;10.60;99.90
25192;DHT22;13143;50.924;5.320;2023-11-21T01:18:22;10.60;99.90
25192;DHT22;13143;50.924;5.320;2023-11-21T01:20:47;10.60;99.90
25192;DHT22;13143;50.924;5.320;2023-11-21T01:23:13;10.60;99.90
25192;DHT22;13143;50.924;5.320;2023-11-21T01:25:39;10.60;99.90
25192;DHT22;13143;50.924;5.320;2023-11-21T01:28:05;10.60;99.90
25192;DHT22;13143;50.924;5.320;2023-11-21T01:30:31;10.60;99.90
25192;DHT22;13143;50.924;5.320;2023-11-21T01:32:58;10.60;99.90
25192;DHT22;13143;50.924;5.320;2023-11-21T01:35:24;10.60;99.90
25192;DHT22;13143;50.924;5.320;2023-11-21T01:37:50;10.60;99.90
25192;DHT22;13143;50.924;5.320;2023-11-21T01:40:15;10.60;99.90
25192;DHT22;13143;50.924;5.320;2023-11-21T01:42:42;10.60;99.90
25192;DHT22;13143;50.924;5.320;2023-11-21T01:45:12;10.60;99.90
25192;DHT22;13143;50.924;5.320;2023-11-21T01:47:38;10.70;99.90
25192;DHT22;13143;50.924;5.320;2023-11-21T01:50:07;10.70;99.90
25192;DHT22;13143;50.924;5.320;2023-11-21T01:52:35;10.70;99.90
25192;DHT22;13143;50.924;5.320;2023-11-21T01:55:01;10.60;99.90
25192;DHT22;13143;50.924;5.320;2023-11-21T01:57:28;10.70;99.90
25192;DHT22;13143;50.924;5.320;2023-11-21T01:59:55;10.60;99.90
25192;DHT22;13143;50.924;5.320;2023-11-21T02:02:21;10.70;99.90
25192;DHT22;13143;50.924;5.320;2023-11-21T02:04:47;10.70;99.90
25192;DHT22;13143;50.924;5.320;2023-11-21T02:07:12;10.70;99.90
25192;DHT22;13143;50.924;5.320;2023-11-21T02:09:38;10.70;99.90
25192;DHT22;13143;50.924;5.320;2023-11-21T02:12:07;10.70;99.90
25192;DHT22;13143;50.924;5.320;2023-11-21T02:14:36;10.70;99.90
25192;DHT22;13143;50.924;5.320;2023-11-21T02:17:02;10.70;99.90
25192;DHT22;13143;50.924;5.320;2023-11-21T02:19:29;10.70;99.90
25192;DHT22;13143;50.924;5.320;2023-11-21T02:21:57;10.70;99.90
25192;DHT22;13143;50.924;5.320;2023-11-21T02:24:32;10.70;99.90
25192;DHT22;13143;50.924;5.320;2023-11-21T02:26:58;10.70;99.90
25192;DHT22;13143;50.924;5.320;2023-11-21T02:29:24;10.70;99.90
25192;DHT22;13143;50.924;5.320;2023-11-21T02:31:54;10.70;99.90
25192;DHT22;13143;50.924;5.320;2023-11-21T02:34:21;10.70;99.90
25192;DHT22;13143;50.924;5.320;2023-11-21T02:36:47;10.70;99.90
25192;DHT22;13143;50.924;5.320;2023-11-21T02:39:17;10.70;99.90
25192;DHT22;13143;50.924;5.320;2023-11-21T02:41:43;10.70;99.90
25192;DHT22;13143;50.924;5.320;2023-11-21T02:44:10;10.70;99.90
25192;DHT22;13143;50.924;5.320;2023-11-21T02:46:36;10.70;99.90
25192;DHT22;13143;50.924;5.320;2023-11-21T02:49:06;10.60;99.90
25192;DHT22;13143;50.924;5.320;2023-11-21T02:51:33;10.70;99.90
25192;DHT22;13143;50.924;5.320;2023-11-21T02:53:59;10.70;99.90
25192;DHT22;13143;50.924;5.320;2023-11-21T02:56:26;10.70;99.90
25192;DHT22;13143;50.924;5.320;2023-11-21T02:58:52;10.70;99.90
25192;DHT22;13143;50.924;5.320;2023-11-21T03:01:18;10.70;99.90
25192;DHT22;13143;50.924;5.320;2023-11-21T03:03:44;10.70;99.90
25192;DHT22;13143;50.924;5.320;2023-11-21T03:06:10;10.70;99.90
25192;DHT22;13143;50.924;5.320;2023-11-21T03:08:35;10.70;99.90
25192;DHT22;13143;50.924;5.320;2023-11-21T03:11:01;10.70;99.90
25192;DHT22;13143;50.924;5.320;2023-11-21T03:13:29;10.70;99.90
25192;DHT22;13143;50.924;5.320;2023-11-21T03:15:54;10.70;99.90
25192;DHT22;13143;50.924;5.320;2023-11-21T03:18:21;10.70;99.90
25192;DHT22;13143;50.924;5.320;2023-11-21T03:20:48;10.70;99.90
25192;DHT22;13143;50.924;5.320;2023-11-21T03:23:14;10.70;99.90
25192;DHT22;13143;50.924;5.320;2023-11-21T03:25:40;10.70;99.90
25192;DHT22;13143;50.924;5.320;2023-11-21T03:28:06;10.70;99.90
25192;DHT22;13143;50.924;5.320;2023-11-21T03:30:34;10.70;99.90
25192;DHT22;13143;50.924;5.320;2023-11-21T03:32:59;10.70;99.90
25192;DHT22;13143;50.924;5.320;2023-11-21T03:35:25;10.70;99.90
25192;DHT22;13143;50.924;5.320;2023-11-21T03:37:52;10.70;99.90
25192;DHT22;13143;50.924;5.320;2023-11-21T03:40:17;10.70;99.90
25192;DHT22;13143;50.924;5.320;2023-11-21T03:42:43;10.70;99.90
25192;DHT22;13143;50.924;5.320;2023-11-21T03:45:09;10.70;99.90
25192;DHT22;13143;50.924;5.320;2023-11-21T03:47:35;10.70;99.90
25192;DHT22;13143;50.924;5.320;2023-11-21T03:50:01;10.70;99.90
25192;DHT22;13143;50.924;5.320;2023-11-21T03:52:26;10.70;99.90
25192;DHT22;13143;50.924;5.320;2023-11-21T03:54:54;10.70;99.90
25192;DHT22;13143;50.924;5.320;2023-11-21T03:57:21;10.70;99.90
25192;DHT22;13143;50.924;5.320;2023-11-21T03:59:46;10.70;99.90
25192;DHT22;13143;50.924;5.320;2023-11-21T04:02:12;10.70;99.90
25192;DHT22;13143;50.924;5.320;2023-11-21T04:04:38;10.70;99.90
25192;DHT22;13143;50.924;5.320;2023-11-21T04:07:03;10.70;99.90
25192;DHT22;13143;50.924;5.320;2023-11-21T04:09:30;10.70;99.90
25192;DHT22;13143;50.924;5.320;2023-11-21T04:11:55;10.70;99.90
25192;DHT22;13143;50.924;5.320;2023-11-21T04:14:21;10.70;99.90
25192;DHT22;13143;50.924;5.320;2023-11-21T04:16:47;10.70;99.90
25192;DHT22;13143;50.924;5.320;2023-11-21T04:19:14;10.70;99.90
25192;DHT22;13143;50.924;5.320;2023-11-21T04:21:43;10.70;99.90
25192;DHT22;13143;50.924;5.320;2023-11-21T04:24:09;10.70;99.90
25192;DHT22;13143;50.924;5.320;2023-11-21T04:26:35;10.70;99.90
25192;DHT22;13143;50.924;5.320;2023-11-21T04:29:00;10.70;99.90
25192;DHT22;13143;50.924;5.320;2023-11-21T04:31:26;10.70;99.90
25192;DHT22;13143;50.924;5.320;2023-11-21T04:33:52;10.70;99.90
25192;DHT22;13143;50.924;5.320;2023-11-21T04:36:18;10.70;99.90
25192;DHT22;13143;50.924;5.320;2023-11-21T04:38:43;10.70;99.90
25192;DHT22;13143;50.924;5.320;2023-11-21T04:41:09;10.70;99.90
25192;DHT22;13143;50.924;5.320;2023-11-21T04:43:35;10.70;99.90
25192;DHT22;13143;50.924;5.320;2023-11-21T04:46:00;10.70;99.90
25192;DHT22;13143;50.924;5.320;2023-11-21T04:48:27;10.70;99.90
25192;DHT22;13143;50.924;5.320;2023-11-21T04:50:53;10.70;99.90
25192;DHT22;13143;50.924;5.320;2023-11-21T04:53:19;10.70;99.90
25192;DHT22;13143;50.924;5.320;2023-11-21T04:55:45;10.70;99.90
25192;DHT22;13143;50.924;5.320;2023-11-21T04:58:11;10.70;99.90
25192;DHT22;13143;50.924;5.320;2023-11-21T05:00:37;10.70;99.90
25192;DHT22;13143;50.924;5.320;2023-11-21T05:03:04;10.70;99.90
25192;DHT22;13143;50.924;5.320;2023-11-21T05:05:30;10.70;99.90
25192;DHT22;13143;50.924;5.320;2023-11-21T05:07:56;10.70;99.90
25192;DHT22;13143;50.924;5.320;2023-11-21T05:10:22;10.70;99.90
25192;DHT22;13143;50.924;5.320;2023-11-21T05:12:48;10.70;99.90
25192;DHT22;13143;50.924;5.320;2023-11-21T05:15:16;10.70;99.90
25192;DHT22;13143;50.924;5.320;2023-11-21T05:17:42;10.70;99.90
25192;DHT22;13143;50.924;5.320;2023-11-21T05:20:10;10.70;99.90
25192;DHT22;13143;50.924;5.320;2023-11-21T05:22:37;10.70;99.90
25192;DHT22;13143;50.924;5.320;2023-11-21T05:25:03;10.70;99.90
25192;DHT22;13143;50.924;5.320;2023-11-21T05:27:30;10.70;99.90
25192;DHT22;13143;50.924;5.320;2023-11-21T05:29:58;10.70;99.90
25192;DHT22;13143;50.924;5.320;2023-11-21T05:32:25;10.70;99.90
25192;DHT22;13143;50.924;5.320;2023-11-21T05:34:51;10.70;99.90
25192;DHT22;13143;50.924;5.320;2023-11-21T05:37:17;10.70;99.90
25192;DHT22;13143;50.924;5.320;2023-11-21T05:39:43;10.70;99.90
25192;DHT22;13143;50.924;5.320;2023-11-21T05:42:09;10.70;99.90
25192;DHT22;13143;50.924;5.320;2023-11-21T05:44:41;10.70;99.90
25192;DHT22;13143;50.924;5.320;2023-11-21T05:47:06;10.70;99.90
25192;DHT22;13143;50.924;5.320;2023-11-21T05:49:33;10.70;99.90
25192;DHT22;13143;50.924;5.320;2023-11-21T05:51:58;10.70;99.90
25192;DHT22;13143;50.924;5.320;2023-11-21T05:54:25;10.70;99.90
25192;DHT22;13143;50.924;5.320;2023-11-21T05:56:51;10.70;99.90
25192;DHT22;13143;50.924;5.320;2023-11-21T05:59:17;10.70;99.90
25192;DHT22;13143;50.924;5.320;2023-11-21T06:01:42;10.70;99.90
25192;DHT22;13143;50.924;5.320;2023-11-21T06:04:08;10.70;99.90
25192;DHT22;13143;50.924;5.320;2023-11-21T06:06:35;10.70;99.90
25192;DHT22;13143;50.924;5.320;2023-11-21T06:09:01;10.70;99.90
25192;DHT22;13143;50.924;5.320;2023-11-21T06:11:27;10.70;99.90
25192;DHT22;13143;50.924;5.320;2023-11-21T06:13:53;10.70;99.90
25192;DHT22;13143;50.924;5.320;2023-11-21T06:16:21;10.70;99.90
25192;DHT22;13143;50.924;5.320;2023-11-21T06:18:47;10.70;99.90
25192;DHT22;13143;50.924;5.320;2023-11-21T06:21:13;10.70;99.90
25192;DHT22;13143;50.924;5.320;2023-11-21T06:23:39;10.70;99.90
25192;DHT22;13143;50.924;5.320;2023-11-21T06:26:05;10.70;99.90
25192;DHT22;13143;50.924;5.320;2023-11-21T06:28:32;10.70;99.90
25192;DHT22;13143;50.924;5.320;2023-11-21T06:30:57;10.70;99.90
25192;DHT22;13143;50.924;5.320;2023-11-21T06:33:24;10.70;99.90
25192;DHT22;13143;50.924;5.320;2023-11-21T06:35:52;10.70;99.90
25192;DHT22;13143;50.924;5.320;2023-11-21T06:38:18;10.70;99.90
25192;DHT22;13143;50.924;5.320;2023-11-21T06:40:45;10.70;99.90
25192;DHT22;13143;50.924;5.320;2023-11-21T06:43:11;10.70;99.90
25192;DHT22;13143;50.924;5.320;2023-11-21T06:45:36;10.70;99.90
25192;DHT22;13143;50.924;5.320;2023-11-21T06:48:02;10.70;99.90
25192;DHT22;13143;50.924;5.320;2023-11-21T06:50:28;10.70;99.90
25192;DHT22;13143;50.924;5.320;2023-11-21T06:52:54;10.70;99.90
25192;DHT22;13143;50.924;5.320;2023-11-21T06:55:19;10.70;99.90
25192;DHT22;13143;50.924;5.320;2023-11-21T06:57:45;10.70;99.90
25192;DHT22;13143;50.924;5.320;2023-11-21T07:00:13;10.70;99.90
25192;DHT22;13143;50.924;5.320;2023-11-21T07:02:40;10.70;99.90
25192;DHT22;13143;50.924;5.320;2023-11-21T07:05:06;10.70;99.90
25192;DHT22;13143;50.924;5.320;2023-11-21T07:07:32;10.70;99.90
25192;DHT22;13143;50.924;5.320;2023-11-21T07:10:01;10.70;99.90
25192;DHT22;13143;50.924;5.320;2023-11-21T07:12:29;10.70;99.90
25192;DHT22;13143;50.924;5.320;2023-11-21T07:14:56;10.70;99.90
25192;DHT22;13143;50.924;5.320;2023-11-21T07:17:22;10.70;99.90
25192;DHT22;13143;50.924;5.320;2023-11-21T07:19:49;10.70;99.90
25192;DHT22;13143;50.924;5.320;2023-11-21T07:22:15;10.70;99.90
25192;DHT22;13143;50.924;5.320;2023-11-21T07:24:48;10.70;99.90
25192;DHT22;13143;50.924;5.320;2023-11-21T07:27:15;10.70;99.90
25192;DHT22;13143;50.924;5.320;2023-11-21T07:29:41;10.70;99.90
25192;DHT22;13143;50.924;5.320;2023-11-21T07:32:07;10.70;99.90
25192;DHT22;13143;50.924;5.320;2023-11-21T07:34:35;10.70;99.90
25192;DHT22;13143;50.924;5.320;2023-11-21T07:37:01;10.70;99.90
25192;DHT22;13143;50.924;5.320;2023-11-21T07:39:28;10.70;99.90
25192;DHT22;13143;50.924;5.320;2023-11-21T07:41:53;10.70;99.90
25192;DHT22;13143;50.924;5.320;2023-11-21T07:44:19;10.70;99.90
25192;DHT22;13143;50.924;5.320;2023-11-21T07:46:45;10.70;99.90
25192;DHT22;13143;50.924;5.320;2023-11-21T07:49:12;10.70;99.90
25192;DHT22;13143;50.924;5.320;2023-11-21T07:51:41;10.70;99.90
25192;DHT22;13143;50.924;5.320;2023-11-21T07:54:07;10.70;99.90
25192;DHT22;13143;50.924;5.320;2023-11-21T07:56:33;10.70;99.90
25192;DHT22;13143;50.924;5.320;2023-11-21T07:58:59;10.70;99.90
25192;DHT22;13143;50.924;5.320;2023-11-21T08:01:24;10.70;99.90
25192;DHT22;13143;50.924;5.320;2023-11-21T08:03:50;10.70;99.90
25192;DHT22;13143;50.924;5.320;2023-11-21T08:06:18;10.70;99.90
25192;DHT22;13143;50.924;5.320;2023-11-21T08:08:43;10.70;99.90
25192;DHT22;13143;50.924;5.320;2023-11-21T08:11:09;10.70;99.90
25192;DHT22;13143;50.924;5.320;2023-11-21T08:13:36;10.70;99.90
25192;DHT22;13143;50.924;5.320;2023-11-21T08:16:02;10.70;99.90
25192;DHT22;13143;50.924;5.320;2023-11-21T08:18:30;10.70;99.90
25192;DHT22;13143;50.924;5.320;2023-11-21T08:20:56;10.70;99.90
25192;DHT22;13143;50.924;5.320;2023-11-21T08:23:22;10.70;99.90
25192;DHT22;13143;50.924;5.320;2023-11-21T08:25:51;10.70;99.90
25192;DHT22;13143;50.924;5.320;2023-11-21T08:28:17;10.70;99.90
25192;DHT22;13143;50.924;5.320;2023-11-21T08:30:43;10.70;99.90
25192;DHT22;13143;50.924;5.320;2023-11-21T08:33:09;10.70;99.90
25192;DHT22;13143;50.924;5.320;2023-11-21T08:35:37;10.70;99.90
25192;DHT22;13143;50.924;5.320;2023-11-21T08:38:03;10.70;99.90
25192;DHT22;13143;50.924;5.320;2023-11-21T08:40:29;10.70;99.90
25192;DHT22;13143;50.924;5.320;2023-11-21T08:42:55;10.70;99.90
25192;DHT22;13143;50.924;5.320;2023-11-21T08:45:21;10.80;99.90
25192;DHT22;13143;50.924;5.320;2023-11-21T08:47:47;10.80;99.90
25192;DHT22;13143;50.924;5.320;2023-11-21T08:50:13;10.70;99.90
25192;DHT22;13143;50.924;5.320;2023-11-21T08:52:41;10.80;99.90
25192;DHT22;13143;50.924;5.320;2023-11-21T08:55:08;10.70;99.90
25192;DHT22;13143;50.924;5.320;2023-11-21T08:57:37;10.80;99.90
25192;DHT22;13143;50.924;5.320;2023-11-21T09:00:04;10.80;99.90
25192;DHT22;13143;50.924;5.320;2023-11-21T09:02:36;10.80;99.90
25192;DHT22;13143;50.924;5.320;2023-11-21T09:05:03;10.80;99.90
25192;DHT22;13143;50.924;5.320;2023-11-21T09:07:29;10.80;99.90
25192;DHT22;13143;50.924;5.320;2023-11-21T09:09:56;10.80;99.90
25192;DHT22;13143;50.924;5.320;2023-11-21T09:12:21;10.80;99.90
25192;DHT22;13143;50.924;5.320;2023-11-21T09:14:47;10.80;99.90
25192;DHT22;13143;50.924;5.320;2023-11-21T09:17:13;10.80;99.90
25192;DHT22;13143;50.924;5.320;2023-11-21T09:19:40;10.80;99.90
25192;DHT22;13143;50.924;5.320;2023-11-21T09:22:06;10.80;99.90
25192;DHT22;13143;50.924;5.320;2023-11-21T09:24:32;10.80;99.90
25192;DHT22;13143;50.924;5.320;2023-11-21T09:26:58;10.90;99.90
25192;DHT22;13143;50.924;5.320;2023-11-21T09:29:26;10.90;99.90
25192;DHT22;13143;50.924;5.320;2023-11-21T09:31:51;10.90;99.90
25192;DHT22;13143;50.924;5.320;2023-11-21T09:34:17;10.90;99.90
25192;DHT22;13143;50.924;5.320;2023-11-21T09:36:45;10.90;99.90
25192;DHT22;13143;50.924;5.320;2023-11-21T09:39:11;10.90;99.90
25192;DHT22;13143;50.924;5.320;2023-11-21T09:42:12;10.90;99.90
25192;DHT22;13143;50.924;5.320;2023-11-21T09:44:58;10.90;99.90
25192;DHT22;13143;50.924;5.320;2023-11-21T09:47:30;10.90;99.90
25192;DHT22;13143;50.924;5.320;2023-11-21T09:49:57;10.90;99.90
25192;DHT22;13143;50.924;5.320;2023-11-21T09:52:27;10.90;99.90
25192;DHT22;13143;50.924;5.320;2023-11-21T09:54:55;10.90;99.90
25192;DHT22;13143;50.924;5.320;2023-11-21T09:57:24;10.90;99.90
25192;DHT22;13143;50.924;5.320;2023-11-21T09:59:54;10.90;99.90
25192;DHT22;13143;50.924;5.320;2023-11-21T10:02:26;10.90;99.90
25192;DHT22;13143;50.924;5.320;2023-11-21T10:04:55;11.00;99.90
25192;DHT22;13143;50.924;5.320;2023-11-21T10:07:22;11.00;99.90
25192;DHT22;13143;50.924;5.320;2023-11-21T10:09:51;11.00;99.90
25192;DHT22;13143;50.924;5.320;2023-11-21T10:12:18;11.00;99.90
25192;DHT22;13143;50.924;5.320;2023-11-21T10:14:48;11.00;99.90
25192;DHT22;13143;50.924;5.320;2023-11-21T10:17:14;11.00;99.90
25192;DHT22;13143;50.924;5.320;2023-11-21T10:19:48;11.00;99.90
25192;DHT22;13143;50.924;5.320;2023-11-21T10:22:15;11.00;99.90
25192;DHT22;13143;50.924;5.320;2023-11-21T10:24:41;11.00;99.90
25192;DHT22;13143;50.924;5.320;2023-11-21T10:27:09;11.10;99.90
25192;DHT22;13143;50.924;5.320;2023-11-21T10:29:34;11.10;99.90
25192;DHT22;13143;50.924;5.320;2023-11-21T10:32:04;11.10;99.90
25192;DHT22;13143;50.924;5.320;2023-11-21T10:34:31;11.10;99.90
25192;DHT22;13143;50.924;5.320;2023-11-21T10:36:57;11.10;99.90
25192;DHT22;13143;50.924;5.320;2023-11-21T10:39:24;11.10;99.90
25192;DHT22;13143;50.924;5.320;2023-11-21T10:41:54;11.10;99.90
25192;DHT22;13143;50.924;5.320;2023-11-21T10:44:21;11.10;99.90
25192;DHT22;13143;50.924;5.320;2023-11-21T10:46:52;11.10;99.90
25192;DHT22;13143;50.924;5.320;2023-11-21T10:49:22;11.20;99.90
25192;DHT22;13143;50.924;5.320;2023-11-21T10:51:50;11.20;99.90
25192;DHT22;13143;50.924;5.320;2023-11-21T10:54:22;11.20;99.90
25192;DHT22;13143;50.924;5.320;2023-11-21T10:56:49;11.20;99.90
25192;DHT22;13143;50.924;5.320;2023-11-21T10:59:18;11.20;99.90
25192;DHT22;13143;50.924;5.320;2023-11-21T11:01:46;11.20;99.90
25192;DHT22;13143;50.924;5.320;2023-11-21T11:04:15;11.20;99.90
25192;DHT22;13143;50.924;5.320;2023-11-21T11:06:43;11.20;99.90
25192;DHT22;13143;50.924;5.320;2023-11-21T11:09:13;11.20;99.90
25192;DHT22;13143;50.924;5.320;2023-11-21T11:11:43;11.20;99.90
25192;DHT22;13143;50.924;5.320;2023-11-21T11:14:14;11.20;99.90
25192;DHT22;13143;50.924;5.320;2023-11-21T11:16:40;11.30;99.90
25192;DHT22;13143;50.924;5.320;2023-11-21T11:19:07;11.20;99.90
25192;DHT22;13143;50.924;5.320;2023-11-21T11:35:34;11.30;99.90
25192;DHT22;13143;50.924;5.320;2023-11-21T11:38:03;11.40;99.90
25192;DHT22;13143;50.924;5.320;2023-11-21T11:40:45;11.30;99.90
25192;DHT22;13143;50.924;5.320;2023-11-21T11:43:11;11.40;99.90
25192;DHT22;13143;50.924;5.320;2023-11-21T11:45:37;11.40;99.90
25192;DHT22;13143;50.924;5.320;2023-11-21T11:48:11;11.40;99.90
25192;DHT22;13143;50.924;5.320;2023-11-21T11:51:00;11.40;99.90
25192;DHT22;13143;50.924;5.320;2023-11-21T11:53:33;11.40;99.90
25192;DHT22;13143;50.924;5.320;2023-11-21T11:56:24;11.40;99.90
25192;DHT22;13143;50.924;5.320;2023-11-21T11:58:58;11.40;99.90
25192;DHT22;13143;50.924;5.320;2023-11-21T12:01:26;11.40;99.90
25192;DHT22;13143;50.924;5.320;2023-11-21T12:06:36;11.40;99.90
25192;DHT22;13143;50.924;5.320;2023-11-21T12:09:02;11.50;99.90
25192;DHT22;13143;50.924;5.320;2023-11-21T12:11:32;11.50;99.90
25192;DHT22;13143;50.924;5.320;2023-11-21T12:13:58;11.50;99.90
25192;DHT22;13143;50.924;5.320;2023-11-21T12:16:26;11.50;99.90
25192;DHT22;13143;50.924;5.320;2023-11-21T12:18:55;11.50;99.90
25192;DHT22;13143;50.924;5.320;2023-11-21T12:21:20;11.50;99.90
25192;DHT22;13143;50.924;5.320;2023-11-21T12:23:47;11.50;99.90
25192;DHT22;13143;50.924;5.320;2023-11-21T12:26:13;11.50;99.90
25192;DHT22;13143;50.924;5.320;2023-11-21T12:28:39;11.50;99.90
25192;DHT22;13143;50.924;5.320;2023-11-21T12:31:06;11.50;99.90
25192;DHT22;13143;50.924;5.320;2023-11-21T12:33:35;11.50;99.90
25192;DHT22;13143;50.924;5.320;2023-11-21T12:36:01;11.60;99.90
25192;DHT22;13143;50.924;5.320;2023-11-21T12:38:34;11.60;99.90
25192;DHT22;13143;50.924;5.320;2023-11-21T12:41:00;11.50;99.90
25192;DHT22;13143;50.924;5.320;2023-11-21T12:43:26;11.60;99.90
25192;DHT22;13143;50.924;5.320;2023-11-21T12:46:08;11.60;99.90
25192;DHT22;13143;50.924;5.320;2023-11-21T12:48:37;11.60;99.90
25192;DHT22;13143;50.924;5.320;2023-11-21T12:51:05;11.60;99.90
25192;DHT22;13143;50.924;5.320;2023-11-21T12:53:32;11.60;99.90
25192;DHT22;13143;50.924;5.320;2023-11-21T12:56:10;11.60;99.90
25192;DHT22;13143;50.924;5.320;2023-11-21T12:58:37;11.60;99.90
25192;DHT22;13143;50.924;5.320;2023-11-21T13:01:08;11.60;99.90
25192;DHT22;13143;50.924;5.320;2023-11-21T13:03:46;11.60;99.90
25192;DHT22;13143;50.924;5.320;2023-11-21T13:06:14;11.60;99.90
25192;DHT22;13143;50.924;5.320;2023-11-21T13:08:41;11.60;99.90
25192;DHT22;13143;50.924;5.320;2023-11-21T13:11:07;11.60;99.90
25192;DHT22;13143;50.924;5.320;2023-11-21T13:13:33;11.60;99.90
25192;DHT22;13143;50.924;5.320;2023-11-21T13:16:02;11.60;99.90
25192;DHT22;13143;50.924;5.320;2023-11-21T13:18:31;11.60;99.90
25192;DHT22;13143;50.924;5.320;2023-11-21T13:20:59;11.60;99.90
25192;DHT22;13143;50.924;5.320;2023-11-21T13:23:26;11.60;99.90
25192;DHT22;13143;50.924;5.320;2023-11-21T13:25:52;11.70;99.90
25192;DHT22;13143;50.924;5.320;2023-11-21T13:28:18;11.70;99.90
25192;DHT22;13143;50.924;5.320;2023-11-21T13:30:46;11.70;99.90
25192;DHT22;13143;50.924;5.320;2023-11-21T13:33:14;11.70;99.90
25192;DHT22;13143;50.924;5.320;2023-11-21T13:35:44;11.70;99.90
25192;DHT22;13143;50.924;5.320;2023-11-21T13:38:18;11.70;99.90
25192;DHT22;13143;50.924;5.320;2023-11-21T13:40:52;11.70;99.90
25192;DHT22;13143;50.924;5.320;2023-11-21T13:43:24;11.70;99.90
25192;DHT22;13143;50.924;5.320;2023-11-21T13:45:52;11.70;99.90
25192;DHT22;13143;50.924;5.320;2023-11-21T13:48:36;11.70;99.90
25192;DHT22;13143;50.924;5.320;2023-11-21T13:51:09;11.70;99.90
25192;DHT22;13143;50.924;5.320;2023-11-21T13:53:47;11.70;99.90
25192;DHT22;13143;50.924;5.320;2023-11-21T13:56:15;11.70;99.90
25192;DHT22;13143;50.924;5.320;2023-11-21T13:58:51;11.70;99.90
25192;DHT22;13143;50.924;5.320;2023-11-21T14:01:26;11.70;99.90
25192;DHT22;13143;50.924;5.320;2023-11-21T14:03:59;11.70;99.90
25192;DHT22;13143;50.924;5.320;2023-11-21T14:06:48;11.70;99.90
25192;DHT22;13143;50.924;5.320;2023-11-21T14:09:19;11.70;99.90
25192;DHT22;13143;50.924;5.320;2023-11-21T14:11:55;11.70;99.90
25192;DHT22;13143;50.924;5.320;2023-11-21T14:14:24;11.70;99.90
25192;DHT22;13143;50.924;5.320;2023-11-21T14:16:55;11.70;99.90
25192;DHT22;13143;50.924;5.320;2023-11-21T14:19:21;11.80;99.90
25192;DHT22;13143;50.924;5.320;2023-11-21T14:21:52;11.80;99.90
25192;DHT22;13143;50.924;5.320;2023-11-21T14:24:18;11.70;99.90
25192;DHT22;13143;50.924;5.320;2023-11-21T14:26:45;11.80;99.90
25192;DHT22;13143;50.924;5.320;2023-11-21T14:29:12;11.80;99.90
25192;DHT22;13143;50.924;5.320;2023-11-21T14:31:40;11.80;99.90
25192;DHT22;13143;50.924;5.320;2023-11-21T14:34:07;11.80;99.90
25192;DHT22;13143;50.924;5.320;2023-11-21T14:36:36;11.80;99.90
25192;DHT22;13143;50.924;5.320;2023-11-21T14:39:05;11.80;99.90
25192;DHT22;13143;50.924;5.320;2023-11-21T14:41:35;11.80;99.90
25192;DHT22;13143;50.924;5.320;2023-11-21T14:44:01;11.80;99.90
25192;DHT22;13143;50.924;5.320;2023-11-21T14:46:28;11.80;99.90
25192;DHT22;13143;50.924;5.320;2023-11-21T14:48:54;11.80;99.90
25192;DHT22;13143;50.924;5.320;2023-11-21T14:51:48;11.80;99.90
25192;DHT22;13143;50.924;5.320;2023-11-21T14:54:29;11.80;99.90
25192;DHT22;13143;50.924;5.320;2023-11-21T14:57:21;11.80;99.90
25192;DHT22;13143;50.924;5.320;2023-11-21T14:59:49;11.80;99.90
25192;DHT22;13143;50.924;5.320;2023-11-21T15:02:18;11.80;99.90
25192;DHT22;13143;50.924;5.320;2023-11-21T15:04:48;11.80;99.90
25192;DHT22;13143;50.924;5.320;2023-11-21T15:07:17;11.80;99.90
25192;DHT22;13143;50.924;5.320;2023-11-21T15:09:43;11.80;99.90
25192;DHT22;13143;50.924;5.320;2023-11-21T15:12:11;11.80;99.90
25192;DHT22;13143;50.924;5.320;2023-11-21T15:14:50;11.80;99.90
25192;DHT22;13143;50.924;5.320;2023-11-21T15:17:21;11.80;99.90
25192;DHT22;13143;50.924;5.320;2023-11-21T15:19:52;11.80;99.90
25192;DHT22;13143;50.924;5.320;2023-11-21T15:22:19;11.80;99.90
25192;DHT22;13143;50.924;5.320;2023-11-21T15:24:44;11.80;99.90
25192;DHT22;13143;50.924;5.320;2023-11-21T15:27:13;11.80;99.90
25192;DHT22;13143;50.924;5.320;2023-11-21T15:29:40;11.80;99.90
25192;DHT22;13143;50.924;5.320;2023-11-21T15:32:07;11.80;99.90
25192;DHT22;13143;50.924;5.320;2023-11-21T15:34:33;11.80;99.90
25192;DHT22;13143;50.924;5.320;2023-11-21T15:36:59;11.80;99.90
25192;DHT22;13143;50.924;5.320;2023-11-21T15:39:25;11.80;99.90
25192;DHT22;13143;50.924;5.320;2023-11-21T15:41:55;11.80;99.90
25192;DHT22;13143;50.924;5.320;2023-11-21T15:44:21;11.80;99.90
25192;DHT22;13143;50.924;5.320;2023-11-21T15:46:46;11.80;99.90
25192;DHT22;13143;50.924;5.320;2023-11-21T15:49:13;11.80;99.90